createdAt,value
2019-02-12T00:01:15.847Z,17.67
2019-02-12T00:04:04.813Z,15.87
2019-02-12T00:06:52.974Z,10.33
2019-02-12T00:09:40.830Z,16.40
2019-02-12T00:12:29.486Z,13.00
2019-02-12T00:15:17.614Z,13.20
2019-02-12T00:18:06.203Z,14.37
2019-02-12T00:20:54.438Z,14.17
2019-02-12T00:23:42.457Z,13.73
2019-02-12T00:26:30.798Z,16.40
2019-02-12T00:29:18.834Z,11.83
2019-02-12T00:32:07.129Z,24.33
2019-02-12T00:34:55.164Z,13.47
2019-02-12T00:37:43.504Z,14.53
2019-02-12T00:40:31.543Z,19.57
2019-02-12T00:43:20.073Z,15.40
2019-02-12T00:46:07.779Z,18.73
2019-02-12T00:48:56.352Z,12.63
2019-02-12T00:51:44.857Z,12.83
2019-02-12T00:54:33.019Z,12.33
2019-02-12T00:57:21.059Z,23.40
2019-02-12T01:00:11.327Z,15.17
2019-02-12T01:02:59.291Z,18.80
2019-02-12T01:05:47.554Z,15.77
2019-02-12T01:08:36.211Z,17.57
2019-02-12T01:11:24.229Z,12.43
2019-02-12T01:14:12.827Z,19.70
2019-02-12T01:17:00.841Z,13.80
2019-02-12T01:19:48.823Z,23.07
2019-02-12T01:22:37.156Z,19.83
2019-02-12T01:25:24.817Z,18.87
2019-02-12T01:28:13.110Z,9.60
2019-02-12T01:31:01.923Z,14.23
2019-02-12T01:33:50.394Z,20.90
2019-02-12T01:36:38.903Z,16.50
2019-02-12T01:39:26.867Z,14.97
2019-02-12T01:42:15.557Z,14.43
2019-02-12T01:45:04.118Z,15.63
2019-02-12T01:47:52.259Z,18.07
2019-02-12T01:50:40.425Z,17.80
2019-02-12T01:53:28.665Z,12.97
2019-02-12T01:56:16.294Z,17.30
2019-02-12T01:59:04.295Z,12.53
2019-02-12T02:01:52.654Z,20.83
2019-02-12T02:04:40.436Z,14.43
2019-02-12T02:07:28.815Z,19.37
2019-02-12T02:10:17.987Z,12.50
2019-02-12T02:13:05.843Z,12.50
2019-02-12T02:15:54.350Z,12.20
2019-02-12T02:18:42.362Z,15.53
2019-02-12T02:21:29.931Z,23.93
2019-02-12T02:24:18.152Z,13.20
2019-02-12T02:27:06.323Z,19.77
2019-02-12T02:29:54.516Z,14.50
2019-02-12T02:32:42.974Z,23.83
2019-02-12T02:35:31.029Z,14.37
2019-02-12T02:38:19.564Z,16.40
2019-02-12T02:41:07.091Z,20.20
2019-02-12T02:43:55.309Z,18.60
2019-02-12T02:46:43.633Z,18.10
2019-02-12T02:49:31.787Z,20.60
2019-02-12T02:52:19.994Z,17.20
2019-02-12T02:55:08.487Z,12.63
2019-02-12T02:57:56.687Z,14.20
2019-02-12T03:00:45.207Z,12.30
2019-02-12T03:03:33.105Z,24.73
2019-02-12T03:06:20.985Z,13.63
2019-02-12T03:09:08.965Z,22.93
2019-02-12T03:11:57.440Z,17.07
2019-02-12T03:14:46.253Z,26.73
2019-02-12T03:17:34.719Z,18.87
2019-02-12T03:20:22.770Z,16.20
2019-02-12T03:23:10.956Z,17.47
2019-02-12T03:25:58.587Z,15.03
2019-02-12T03:28:46.337Z,15.33
2019-02-12T03:31:34.489Z,16.43
2019-02-12T03:34:22.990Z,16.80
2019-02-12T03:37:11.175Z,23.30
2019-02-12T03:39:59.399Z,15.50
2019-02-12T03:42:47.825Z,19.97
2019-02-12T03:45:35.947Z,11.97
2019-02-12T03:48:24.283Z,12.07
2019-02-12T03:51:12.142Z,17.03
2019-02-12T03:54:00.427Z,16.13
2019-02-12T03:56:47.899Z,21.20
2019-02-12T03:59:36.202Z,24.03
2019-02-12T04:02:24.730Z,21.70
2019-02-12T04:05:13.175Z,17.63
2019-02-12T04:08:01.215Z,20.27
2019-02-12T04:10:49.492Z,21.27
2019-02-12T04:13:37.987Z,22.63
2019-02-12T04:16:25.521Z,37.00
2019-02-12T04:19:14.139Z,22.13
2019-02-12T04:22:02.013Z,15.00
2019-02-12T04:24:50.223Z,26.83
2019-02-12T04:27:38.423Z,20.80
2019-02-12T04:30:26.375Z,26.30
2019-02-12T04:33:13.990Z,20.37
2019-02-12T04:36:02.436Z,18.67
2019-02-12T04:38:50.994Z,18.50
2019-02-12T04:41:39.212Z,29.53
2019-02-12T04:44:27.279Z,23.13
2019-02-12T04:47:15.636Z,21.97
2019-02-12T04:50:03.867Z,36.23
2019-02-12T04:52:52.067Z,28.37
2019-02-12T04:55:39.539Z,18.70
2019-02-12T04:58:27.766Z,23.63
2019-02-12T05:01:16.118Z,20.83
2019-02-12T05:04:04.143Z,26.83
2019-02-12T05:06:51.669Z,19.00
2019-02-12T05:09:42.091Z,22.10
2019-02-12T05:12:30.318Z,20.23
2019-02-12T05:15:18.611Z,27.67
2019-02-12T05:18:06.525Z,26.77
2019-02-12T05:20:54.835Z,24.60
2019-02-12T05:23:42.614Z,18.13
2019-02-12T05:26:30.799Z,23.67
2019-02-12T05:29:19.003Z,17.90
2019-02-12T05:32:07.080Z,16.13
2019-02-12T05:34:55.901Z,20.27
2019-02-12T05:37:44.590Z,23.77
2019-02-12T05:40:32.591Z,20.63
2019-02-12T05:43:21.020Z,23.43
2019-02-12T05:46:09.023Z,26.27
2019-02-12T05:48:57.275Z,22.73
2019-02-12T05:51:45.570Z,24.73
2019-02-12T05:54:33.480Z,20.77
2019-02-12T05:57:27.266Z,17.60
2019-02-12T06:00:16.994Z,29.27
2019-02-12T06:03:05.467Z,22.47
2019-02-12T06:05:54.010Z,31.97
2019-02-12T06:08:42.579Z,20.73
2019-02-12T06:11:30.370Z,29.53
2019-02-12T06:14:18.630Z,15.30
2019-02-12T06:17:06.607Z,24.37
2019-02-12T06:19:54.491Z,24.43
2019-02-12T06:22:42.755Z,23.90
2019-02-12T06:25:30.728Z,24.67
2019-02-12T06:28:18.783Z,22.53
2019-02-12T06:31:07.714Z,23.77
2019-02-12T06:33:55.630Z,31.67
2019-02-12T06:36:43.559Z,21.27
2019-02-12T06:39:31.590Z,24.20
2019-02-12T06:42:19.468Z,26.20
2019-02-12T06:45:08.479Z,30.67
2019-02-12T06:47:56.958Z,30.07
2019-02-12T06:50:44.571Z,24.73
2019-02-12T06:53:33.075Z,26.80
2019-02-12T06:56:21.334Z,23.20
2019-02-12T06:59:09.990Z,26.20
2019-02-12T07:02:33.840Z,28.53
2019-02-12T07:05:21.839Z,28.23
2019-02-12T07:08:37.480Z,27.93
2019-02-12T07:11:49.576Z,26.00
2019-02-12T07:14:59.165Z,34.40
2019-02-12T07:18:01.905Z,22.63
2019-02-12T07:21:46.192Z,22.97
2019-02-12T07:24:58.723Z,27.37
2019-02-12T07:28:15.810Z,33.20
2019-02-12T07:31:28.328Z,24.33
2019-02-12T07:34:56.604Z,39.17
2019-02-12T07:38:06.204Z,28.63
2019-02-12T07:41:23.214Z,27.60
2019-02-12T07:44:26.127Z,26.83
2019-02-12T07:48:02.384Z,27.63
2019-02-12T07:51:17.851Z,28.87
2019-02-12T07:54:32.087Z,28.57
2019-02-12T07:57:49.759Z,27.80
2019-02-12T08:00:58.731Z,19.80
2019-02-12T08:04:25.399Z,23.67
2019-02-12T08:07:40.831Z,18.87
2019-02-12T08:11:01.822Z,19.73
2019-02-12T08:14:02.547Z,24.73
2019-02-12T08:17:01.721Z,23.60
2019-02-12T08:20:13.085Z,17.13
2019-02-12T08:23:41.191Z,23.57
2019-02-12T08:27:20.032Z,23.03
2019-02-12T08:30:36.395Z,22.03
2019-02-12T08:34:08.810Z,17.27
2019-02-12T08:37:37.436Z,21.40
2019-02-12T08:41:11.642Z,17.43
2019-02-12T08:44:30.238Z,20.83
2019-02-12T08:47:47.527Z,23.93
2019-02-12T08:51:11.622Z,14.90
2019-02-12T08:54:34.675Z,23.63
2019-02-12T08:57:57.384Z,19.23
2019-02-12T09:01:20.169Z,13.80
2019-02-12T09:04:57.482Z,20.17
2019-02-12T09:08:15.530Z,19.10
2019-02-12T09:11:29.859Z,19.63
2019-02-12T09:14:41.903Z,17.90
2019-02-12T09:18:00.960Z,18.63
2019-02-12T09:21:17.697Z,25.87
2019-02-12T09:24:39.527Z,23.70
2019-02-12T09:28:02.419Z,20.57
2019-02-12T09:31:16.592Z,21.27
2019-02-12T09:34:45.452Z,20.60
2019-02-12T09:38:23.750Z,21.87
2019-02-12T09:41:40.691Z,25.00
2019-02-12T09:45:12.178Z,25.07
2019-02-12T09:48:14.863Z,18.63
2019-02-12T09:51:44.701Z,22.57
2019-02-12T09:55:08.116Z,30.93
2019-02-12T09:58:26.295Z,35.77
2019-02-12T10:01:40.095Z,31.80
2019-02-12T10:05:09.603Z,56.27
2019-02-12T10:08:28.983Z,33.13
2019-02-12T10:11:44.235Z,27.97
2019-02-12T10:15:03.019Z,23.77
2019-02-12T10:18:10.309Z,20.90
2019-02-12T10:21:29.587Z,22.03
2019-02-12T10:24:48.463Z,19.10
2019-02-12T10:27:58.547Z,18.63
2019-02-12T10:31:09.762Z,21.37
2019-02-12T10:33:57.767Z,22.93
2019-02-12T10:36:45.738Z,26.77
2019-02-12T10:39:34.133Z,20.87
2019-02-12T10:42:21.663Z,25.80
2019-02-12T10:45:10.142Z,27.90
2019-02-12T10:47:57.727Z,25.73
2019-02-12T10:50:46.214Z,26.97
2019-02-12T10:53:34.343Z,32.80
2019-02-12T10:56:21.859Z,28.33
2019-02-12T10:59:10.338Z,22.27
2019-02-12T11:01:58.099Z,29.70
2019-02-12T11:04:46.707Z,21.20
2019-02-12T11:07:34.985Z,21.83
2019-02-12T11:10:23.236Z,19.60
2019-02-12T11:13:11.251Z,20.30
2019-02-12T11:15:59.559Z,15.10
2019-02-12T11:18:48.248Z,18.43
2019-02-12T11:21:36.711Z,19.00
2019-02-12T11:24:24.820Z,21.37
2019-02-12T11:27:13.803Z,17.60
2019-02-12T11:30:02.176Z,15.10
2019-02-12T11:32:50.566Z,12.43
2019-02-12T11:35:38.722Z,11.20
2019-02-12T11:38:27.292Z,19.33
2019-02-12T11:41:16.462Z,13.60
2019-02-12T11:44:04.422Z,13.80
2019-02-12T11:46:51.957Z,16.70
2019-02-12T11:49:40.527Z,12.60
2019-02-12T11:52:28.575Z,14.73
2019-02-12T11:55:17.118Z,17.53
2019-02-12T11:58:04.700Z,16.62
2019-02-12T12:00:57.022Z,17.77
2019-02-12T12:03:45.693Z,16.60
2019-02-12T12:06:34.106Z,19.73
2019-02-12T12:09:22.657Z,20.03
2019-02-12T12:12:10.475Z,19.53
2019-02-12T12:14:58.050Z,16.33
2019-02-12T12:17:46.491Z,21.20
2019-02-12T12:20:35.110Z,15.20
2019-02-12T12:23:22.699Z,20.67
2019-02-12T12:26:11.163Z,19.03
2019-02-12T12:28:59.374Z,18.80
2019-02-12T12:31:47.789Z,16.13
2019-02-12T12:34:35.297Z,16.57
2019-02-12T12:37:23.796Z,18.10
2019-02-12T12:40:12.591Z,16.47
2019-02-12T12:43:01.131Z,16.03
2019-02-12T12:45:49.187Z,13.93
2019-02-12T12:48:37.759Z,15.80
2019-02-12T12:51:26.261Z,18.37
2019-02-12T12:54:14.491Z,19.40
2019-02-12T12:57:02.630Z,18.63
2019-02-12T12:59:50.847Z,19.60
2019-02-12T13:02:38.394Z,13.60
2019-02-12T13:05:26.468Z,25.27
2019-02-12T13:08:14.804Z,17.80
2019-02-12T13:11:03.132Z,12.80
2019-02-12T13:13:50.807Z,16.87
2019-02-12T13:16:39.070Z,17.20
2019-02-12T13:19:27.400Z,22.63
2019-02-12T13:22:15.867Z,19.97
2019-02-12T13:25:08.632Z,20.53
2019-02-12T13:27:54.451Z,15.43
2019-02-12T13:30:42.895Z,20.73
2019-02-12T13:33:31.318Z,18.70
2019-02-12T13:36:19.370Z,26.10
2019-02-12T13:39:07.872Z,21.83
2019-02-12T13:41:55.422Z,27.30
2019-02-12T13:44:43.835Z,24.70
2019-02-12T13:47:31.907Z,21.97
2019-02-12T13:50:20.052Z,24.40
2019-02-12T13:53:07.935Z,21.40
2019-02-12T13:55:56.339Z,20.73
2019-02-12T13:58:44.791Z,25.57
2019-02-12T14:01:33.483Z,22.10
2019-02-12T14:04:21.548Z,21.70
2019-02-12T14:07:09.301Z,24.87
2019-02-12T14:09:56.962Z,21.37
2019-02-12T14:12:44.796Z,22.23
2019-02-12T14:15:33.528Z,22.63
2019-02-12T14:18:21.470Z,16.23
2019-02-12T14:21:09.617Z,21.07
2019-02-12T14:23:58.119Z,19.40
2019-02-12T14:26:46.336Z,22.27
2019-02-12T14:29:34.336Z,17.60
2019-02-12T14:32:22.200Z,16.70
2019-02-12T14:35:11.322Z,15.90
2019-02-12T14:37:59.819Z,15.30
2019-02-12T14:40:48.693Z,19.87
2019-02-12T14:43:36.480Z,18.73
2019-02-12T14:46:25.135Z,17.47
2019-02-12T14:49:13.390Z,20.50
2019-02-12T14:52:02.305Z,22.20
2019-02-12T14:54:50.842Z,18.57
2019-02-12T14:57:41.018Z,15.73
2019-02-12T15:00:29.251Z,16.83
2019-02-12T15:03:17.683Z,19.83
2019-02-12T15:06:05.735Z,14.93
2019-02-12T15:08:54.519Z,21.33
2019-02-12T15:11:42.578Z,15.57
2019-02-12T15:14:30.926Z,24.07
2019-02-12T15:17:18.942Z,25.10
2019-02-12T15:20:07.927Z,18.63
2019-02-12T15:22:56.187Z,17.80
2019-02-12T15:25:44.669Z,17.33
2019-02-12T15:28:32.947Z,22.33
2019-02-12T15:31:21.187Z,19.77
2019-02-12T15:34:09.361Z,17.30
2019-02-12T15:36:57.283Z,18.70
2019-02-12T15:39:44.787Z,17.30
2019-02-12T15:42:33.347Z,19.13
2019-02-12T15:45:21.328Z,16.03
2019-02-12T15:48:09.035Z,18.90
2019-02-12T15:50:57.802Z,21.60
2019-02-12T15:53:46.023Z,19.20
2019-02-12T15:56:34.753Z,22.20
2019-02-12T15:59:23.271Z,14.80
2019-02-12T16:02:12.035Z,22.00
2019-02-12T16:05:00.923Z,19.10
2019-02-12T16:07:49.619Z,17.27
2019-02-12T16:10:40.112Z,18.67
2019-02-12T16:13:27.590Z,18.43
2019-02-12T16:16:15.715Z,16.90
2019-02-12T16:19:03.240Z,17.63
2019-02-12T16:21:51.470Z,19.63
2019-02-12T16:24:39.691Z,17.43
2019-02-12T16:27:28.272Z,22.40
2019-02-12T16:30:16.796Z,17.20
2019-02-12T16:33:05.572Z,18.00
2019-02-12T16:35:53.355Z,17.73
2019-02-12T16:38:41.799Z,20.30
2019-02-12T16:41:29.947Z,20.93
2019-02-12T16:44:18.251Z,20.43
2019-02-12T16:47:06.484Z,21.67
2019-02-12T16:49:55.050Z,27.53
2019-02-12T16:52:43.156Z,17.90
2019-02-12T16:55:31.354Z,22.00
2019-02-12T16:58:19.823Z,21.80
2019-02-12T17:01:07.800Z,19.63
2019-02-12T17:03:55.412Z,26.07
2019-02-12T17:06:42.988Z,19.70
2019-02-12T17:09:31.460Z,25.00
2019-02-12T17:12:19.963Z,23.50
2019-02-12T17:15:09.066Z,28.83
2019-02-12T17:17:57.067Z,35.20
2019-02-12T17:20:45.366Z,22.23
2019-02-12T17:23:33.619Z,22.87
2019-02-12T17:26:21.982Z,22.33
2019-02-12T17:29:10.294Z,22.43
2019-02-12T17:31:58.414Z,25.80
2019-02-12T17:34:46.632Z,19.23
2019-02-12T17:37:34.902Z,23.40
2019-02-12T17:40:23.358Z,24.03
2019-02-12T17:43:11.454Z,28.10
2019-02-12T17:45:59.642Z,26.10
2019-02-12T17:48:47.155Z,21.33
2019-02-12T17:51:35.237Z,23.70
2019-02-12T17:54:24.447Z,20.93
2019-02-12T17:57:12.263Z,20.83
2019-02-12T18:00:00.620Z,18.90
2019-02-12T18:02:49.027Z,25.37
2019-02-12T18:05:37.194Z,24.73
2019-02-12T18:08:25.374Z,18.37
2019-02-12T18:11:13.582Z,21.80
2019-02-12T18:14:01.152Z,30.53
2019-02-12T18:16:49.964Z,27.43
2019-02-12T18:19:37.847Z,21.07
2019-02-12T18:22:25.747Z,22.63
2019-02-12T18:25:14.418Z,24.37
2019-02-12T18:28:02.835Z,27.47
2019-02-12T18:30:51.270Z,26.27
2019-02-12T18:33:39.655Z,25.90
2019-02-12T18:36:28.105Z,25.20
2019-02-12T18:39:16.691Z,25.00
2019-02-12T18:42:05.403Z,26.70
2019-02-12T18:44:53.351Z,26.87
2019-02-12T18:47:41.567Z,39.43
2019-02-12T18:50:29.795Z,33.23
2019-02-12T18:53:18.275Z,26.43
2019-02-12T18:56:07.119Z,30.70
2019-02-12T18:58:55.428Z,26.20
2019-02-12T19:01:43.134Z,31.80
2019-02-12T19:04:30.775Z,24.50
2019-02-12T19:07:18.900Z,25.57
2019-02-12T19:10:07.535Z,27.23
2019-02-12T19:12:55.954Z,24.13
2019-02-12T19:15:43.475Z,27.27
2019-02-12T19:18:31.621Z,26.17
2019-02-12T19:21:20.120Z,23.83
2019-02-12T19:24:08.339Z,28.73
2019-02-12T19:26:56.539Z,26.03
2019-02-12T19:29:44.820Z,25.73
2019-02-12T19:32:33.064Z,33.33
2019-02-12T19:35:21.429Z,23.97
2019-02-12T19:38:09.889Z,28.93
2019-02-12T19:40:57.789Z,24.67
2019-02-12T19:43:46.099Z,31.53
2019-02-12T19:46:34.347Z,33.43
2019-02-12T19:49:22.822Z,41.10
2019-02-12T19:52:11.432Z,26.17
2019-02-12T19:54:59.875Z,31.00
2019-02-12T19:57:48.651Z,27.33
2019-02-12T20:00:36.862Z,26.37
2019-02-12T20:03:24.779Z,34.23
2019-02-12T20:06:13.580Z,24.63
2019-02-12T20:09:01.641Z,27.63
2019-02-12T20:11:50.167Z,29.00
2019-02-12T20:14:38.230Z,33.00
2019-02-12T20:17:26.343Z,29.13
2019-02-12T20:20:14.723Z,27.30
2019-02-12T20:23:03.031Z,29.90
2019-02-12T20:25:51.246Z,27.03
2019-02-12T20:28:39.634Z,37.97
2019-02-12T20:31:27.261Z,28.30
2019-02-12T20:34:15.730Z,29.23
2019-02-12T20:37:04.175Z,26.60
2019-02-12T20:39:52.160Z,24.93
2019-02-12T20:42:40.415Z,25.87
2019-02-12T20:45:28.774Z,29.73
2019-02-12T20:48:17.229Z,28.57
2019-02-12T20:51:05.391Z,28.77
2019-02-12T20:53:53.656Z,24.10
2019-02-12T20:56:41.974Z,24.77
2019-02-12T20:59:30.180Z,28.17
2019-02-12T21:02:18.458Z,27.53
2019-02-12T21:05:07.911Z,25.37
2019-02-12T21:07:56.424Z,24.47
2019-02-12T21:10:44.963Z,30.77
2019-02-12T21:13:33.248Z,31.63
2019-02-12T21:16:21.794Z,28.20
2019-02-12T21:19:09.387Z,26.50
2019-02-12T21:21:58.027Z,27.40
2019-02-12T21:24:46.975Z,31.53
2019-02-12T21:27:34.693Z,23.73
2019-02-12T21:30:23.504Z,26.13
2019-02-12T21:33:11.573Z,33.43
2019-02-12T21:35:59.603Z,34.70
2019-02-12T21:38:48.346Z,28.67
2019-02-12T21:41:36.363Z,25.70
2019-02-12T21:44:24.364Z,25.93
2019-02-12T21:47:12.978Z,24.93
2019-02-12T21:50:02.725Z,29.43
2019-02-12T21:52:50.827Z,28.70
2019-02-12T21:55:39.243Z,32.43
2019-02-12T21:58:28.986Z,31.57
2019-02-12T22:01:17.374Z,32.07
2019-02-12T22:04:05.920Z,26.90
2019-02-12T22:06:54.107Z,29.10
2019-02-12T22:09:42.320Z,32.93
2019-02-12T22:12:30.844Z,31.60
2019-02-12T22:15:19.252Z,28.93
2019-02-12T22:18:07.287Z,27.90
2019-02-12T22:20:55.279Z,28.07
2019-02-12T22:23:43.354Z,29.07
2019-02-12T22:26:31.435Z,33.53
2019-02-12T22:29:19.687Z,28.70
2019-02-12T22:32:07.434Z,25.97
2019-02-12T22:34:55.729Z,28.80
2019-02-12T22:37:43.883Z,28.30
2019-02-12T22:40:32.129Z,25.73
2019-02-12T22:43:20.275Z,28.43
2019-02-12T22:46:08.779Z,28.70
2019-02-12T22:48:56.914Z,28.90
2019-02-12T22:51:45.058Z,30.77
2019-02-12T22:54:33.542Z,30.10
2019-02-12T22:57:21.771Z,31.63
2019-02-12T23:00:51.448Z,29.43
2019-02-12T23:03:39.206Z,29.80
2019-02-12T23:06:27.281Z,27.77
2019-02-12T23:09:17.351Z,28.57
2019-02-12T23:12:05.850Z,34.13
2019-02-12T23:14:54.095Z,29.13
2019-02-12T23:17:42.186Z,31.07
2019-02-12T23:20:30.182Z,30.77
2019-02-12T23:23:18.834Z,30.50
2019-02-12T23:26:06.800Z,27.53
2019-02-12T23:28:55.071Z,32.10
2019-02-12T23:31:43.179Z,29.80
2019-02-12T23:34:31.719Z,28.97
2019-02-12T23:37:19.891Z,27.77
2019-02-12T23:40:08.654Z,34.60
2019-02-12T23:42:56.945Z,30.67
2019-02-12T23:45:45.031Z,29.57
2019-02-12T23:48:33.566Z,28.90
2019-02-12T23:51:22.166Z,30.30
2019-02-12T23:54:09.903Z,27.60
2019-02-12T23:56:58.231Z,26.77
2019-02-12T23:59:46.318Z,29.07
